Time;durP1;ratioP1;P1;durP2;ratioP2;P2;SDS_P1;SDS_P2;PMS_P1;PMS_P2;Temp;Humidity;BMP_temperature;BMP_pressure;BME280_temperature;BME280_humidity;BME280_pressure;Samples;Min_cycle;Max_cycle;Signal;HPM_P1;HPM_P2
2023/07/31 00:00:49;;;;;;;5.90;4.63;;;22.30;94.30;;;;;;4992560;28;20027;-82
2023/07/31 00:03:14;;;;;;;5.00;4.50;;;22.20;94.30;;;;;;4991252;28;20053;-82
2023/07/31 00:05:40;;;;;;;5.45;4.68;;;22.20;94.40;;;;;;4992617;28;20054;-82
2023/07/31 00:08:06;;;;;;;4.80;4.40;;;22.20;94.40;;;;;;4991011;28;20566;-82
2023/07/31 00:10:33;;;;;;;4.75;4.20;;;22.30;94.40;;;;;;4990973;28;20167;-82
2023/07/31 00:12:59;;;;;;;4.57;4.18;;;22.30;94.50;;;;;;4992178;28;20108;-82
2023/07/31 00:15:24;;;;;;;4.82;4.32;;;22.30;94.60;;;;;;4990790;28;20030;-82
2023/07/31 00:17:50;;;;;;;5.15;4.65;;;22.30;94.60;;;;;;4990723;28;20030;-82
2023/07/31 00:20:16;;;;;;;4.47;4.00;;;22.30;94.60;;;;;;4990864;28;20029;-82
2023/07/31 00:22:41;;;;;;;4.80;4.30;;;22.30;94.70;;;;;;4990700;28;20085;-82
2023/07/31 00:25:07;;;;;;;4.78;4.38;;;22.30;94.60;;;;;;4990716;28;20093;-82
2023/07/31 00:27:33;;;;;;;6.00;4.68;;;22.30;94.70;;;;;;4990716;28;20065;-82
2023/07/31 00:29:58;;;;;;;4.57;4.18;;;22.30;94.60;;;;;;4990860;28;20447;-82
2023/07/31 00:32:24;;;;;;;4.60;4.20;;;22.20;94.60;;;;;;4992010;28;20554;-82
2023/07/31 00:34:50;;;;;;;4.88;4.38;;;22.20;94.70;;;;;;4990775;28;20033;-82
2023/07/31 00:37:15;;;;;;;4.80;4.30;;;22.20;94.80;;;;;;4990622;28;20033;-82
2023/07/31 00:39:41;;;;;;;5.25;4.38;;;22.20;94.90;;;;;;4991870;28;20019;-82
2023/07/31 00:42:07;;;;;;;4.63;4.13;;;22.20;94.90;;;;;;4990540;28;20029;-82
2023/07/31 00:44:33;;;;;;;4.57;4.18;;;22.20;94.90;;;;;;4991940;28;20025;-82
2023/07/31 00:46:59;;;;;;;4.70;4.20;;;22.20;95.00;;;;;;4991698;28;20085;-82
2023/07/31 00:49:26;;;;;;;4.70;4.30;;;22.10;95.00;;;;;;4990630;28;20034;-82
2023/07/31 00:51:52;;;;;;;4.60;4.20;;;22.10;95.00;;;;;;4991995;28;20101;-82
2023/07/31 00:54:18;;;;;;;4.78;4.38;;;22.10;94.90;;;;;;4991743;28;20035;-82
2023/07/31 00:56:48;;;;;;;5.10;4.07;;;22.10;94.90;;;;;;4990678;28;20037;-82
2023/07/31 00:59:13;;;;;;;4.20;3.80;;;22.10;94.70;;;;;;4991212;28;20050;-82
2023/07/31 01:01:40;;;;;;;5.30;3.92;;;22.10;94.70;;;;;;4991817;28;20061;-82
2023/07/31 01:04:06;;;;;;;5.97;4.68;;;22.10;94.60;;;;;;4990587;28;20023;-82
2023/07/31 01:07:01;;;;;;;6.15;4.80;;;22.10;94.60;;;;;;4993945;28;20037;-82
2023/07/31 01:09:52;;;;;;;7.20;5.10;;;22.10;94.10;;;;;;4994206;28;20030;-82
2023/07/31 01:12:21;;;;;;;4.63;4.22;;;22.10;94.30;;;;;;4993316;28;20054;-82
2023/07/31 01:15:10;;;;;;;4.32;3.90;;;22.10;94.30;;;;;;4994047;28;20049;-82
2023/07/31 01:17:39;;;;;;;5.35;4.22;;;22.10;93.70;;;;;;4994058;28;20022;-82
2023/07/31 01:20:17;;;;;;;4.55;3.92;;;22.10;94.00;;;;;;4995353;28;20029;-82
2023/07/31 01:22:55;;;;;;;4.07;3.63;;;22.10;93.90;;;;;;4993871;28;20502;-82
2023/07/31 01:25:36;;;;;;;5.38;4.13;;;22.10;93.80;;;;;;4993964;28;20478;-82
2023/07/31 01:28:06;;;;;;;;;;;22.10;93.50;;;;;;4994516;28;20092;-82
2023/07/31 01:30:41;;;;;;;4.03;3.63;;;22.00;93.40;;;;;;4994963;28;19906;-82
2023/07/31 01:33:07;;;;;;;3.80;3.50;;;22.00;93.70;;;;;;4993842;28;20030;-82
2023/07/31 01:35:37;;;;;;;3.45;3.15;;;22.00;93.70;;;;;;4995066;28;20038;-82
2023/07/31 01:38:04;;;;;;;3.80;3.50;;;22.00;93.60;;;;;;4993576;28;20030;-82
2023/07/31 01:40:30;;;;;;;4.03;3.60;;;22.10;93.60;;;;;;4993655;28;20034;-82
2023/07/31 01:42:56;;;;;;;4.03;3.63;;;22.10;93.70;;;;;;4993703;28;20026;-81
2023/07/31 01:45:21;;;;;;;4.15;3.75;;;22.00;93.60;;;;;;4995013;28;20114;-82
2023/07/31 01:47:47;;;;;;;4.22;3.83;;;22.00;93.60;;;;;;4994112;28;20030;-82
2023/07/31 01:50:13;;;;;;;4.07;3.70;;;22.00;93.50;;;;;;4993496;28;20137;-82
2023/07/31 01:52:38;;;;;;;5.80;4.72;;;22.00;93.50;;;;;;4993672;28;20038;-82
2023/07/31 01:55:04;;;;;;;4.47;4.05;;;22.00;93.40;;;;;;4993668;28;20042;-82
2023/07/31 01:57:30;;;;;;;4.78;4.13;;;22.00;93.40;;;;;;4994606;28;20062;-82
2023/07/31 01:59:56;;;;;;;5.13;4.60;;;22.00;93.30;;;;;;4993995;28;20022;-82
2023/07/31 02:02:23;;;;;;;4.30;3.90;;;22.00;93.30;;;;;;4993339;28;20026;-82
2023/07/31 02:04:49;;;;;;;5.22;4.30;;;22.00;93.40;;;;;;4992994;28;20034;-82
2023/07/31 02:07:14;;;;;;;4.55;4.15;;;21.90;93.40;;;;;;4993263;28;20027;-82
2023/07/31 02:09:40;;;;;;;4.80;4.30;;;21.90;93.50;;;;;;4994366;28;20030;-82
2023/07/31 02:12:08;;;;;;;4.75;4.35;;;21.80;93.60;;;;;;4994010;28;20077;-81
2023/07/31 02:14:34;;;;;;;4.25;3.85;;;21.80;93.80;;;;;;4994362;28;20554;-82
2023/07/31 02:17:00;;;;;;;4.68;4.28;;;21.80;93.90;;;;;;4993409;28;20034;-82
2023/07/31 02:19:26;;;;;;;4.93;4.43;;;21.80;94.00;;;;;;4994245;28;20105;-82
2023/07/31 02:21:51;;;;;;;5.13;4.45;;;21.70;94.00;;;;;;4993412;28;20118;-82
2023/07/31 02:24:17;;;;;;;4.53;4.07;;;21.70;94.10;;;;;;4994109;28;20486;-82
2023/07/31 02:26:43;;;;;;;4.57;4.18;;;21.70;94.20;;;;;;4994072;28;20494;-82
2023/07/31 02:29:09;;;;;;;4.95;4.20;;;21.60;94.20;;;;;;4992740;28;20030;-81
2023/07/31 02:31:34;;;;;;;4.35;3.95;;;21.60;94.30;;;;;;4993166;28;20026;-81
2023/07/31 02:34:00;;;;;;;5.90;4.82;;;21.60;94.60;;;;;;4992755;28;20177;-82
2023/07/31 02:36:26;;;;;;;4.82;4.32;;;21.60;94.30;;;;;;4993960;28;20097;-82
2023/07/31 02:38:51;;;;;;;4.75;4.28;;;21.60;94.40;;;;;;4993969;28;20030;-82
2023/07/31 02:41:17;;;;;;;5.80;4.43;;;21.60;94.50;;;;;;4993794;28;20034;-82
2023/07/31 02:43:43;;;;;;;4.85;4.38;;;21.60;94.50;;;;;;4992509;28;20089;-82
2023/07/31 02:46:08;;;;;;;4.82;4.18;;;21.60;94.60;;;;;;4992688;28;20046;-82
2023/07/31 02:48:34;;;;;;;4.40;4.00;;;21.60;94.60;;;;;;4992637;28;20045;-84
2023/07/31 02:50:59;;;;;;;4.63;4.22;;;21.60;94.60;;;;;;4993996;28;20041;-82
2023/07/31 02:53:25;;;;;;;4.53;4.13;;;21.60;94.70;;;;;;4993899;28;20037;-81
2023/07/31 02:55:51;;;;;;;4.40;4.00;;;21.60;94.90;;;;;;4992047;28;20026;-82
2023/07/31 02:58:16;;;;;;;4.13;3.72;;;21.70;94.90;;;;;;4992211;28;20391;-82
2023/07/31 03:00:43;;;;;;;4.18;3.78;;;21.70;95.00;;;;;;4993462;28;20029;-82
2023/07/31 03:03:09;;;;;;;5.00;3.85;;;21.80;95.00;;;;;;4993552;28;20026;-82
2023/07/31 03:05:34;;;;;;;3.85;3.55;;;21.80;95.00;;;;;;4992159;28;20030;-82
2023/07/31 03:08:01;;;;;;;4.32;3.92;;;21.90;95.00;;;;;;4993412;28;20085;-82
2023/07/31 03:10:27;;;;;;;4.30;3.90;;;21.90;94.80;;;;;;4992353;28;20034;-82
2023/07/31 03:12:53;;;;;;;4.78;3.95;;;22.00;94.70;;;;;;4992981;28;20061;-82
2023/07/31 03:15:18;;;;;;;3.90;3.50;;;22.10;94.70;;;;;;4992004;28;20034;-82
2023/07/31 03:17:44;;;;;;;5.00;4.32;;;22.20;94.50;;;;;;4991671;28;20034;-82
2023/07/31 03:20:10;;;;;;;5.10;4.60;;;22.40;94.20;;;;;;4993084;28;20038;-82
2023/07/31 03:22:36;;;;;;;5.75;5.20;;;22.50;94.00;;;;;;4992435;28;20045;-83
2023/07/31 03:25:02;;;;;;;5.30;4.80;;;22.60;93.60;;;;;;4993114;28;20027;-82
2023/07/31 03:27:28;;;;;;;5.55;5.05;;;22.60;93.30;;;;;;4991663;28;20057;-82
2023/07/31 03:29:54;;;;;;;5.30;4.70;;;22.70;93.20;;;;;;4993088;28;20030;-82
2023/07/31 03:32:19;;;;;;;5.32;4.82;;;22.80;93.10;;;;;;4991622;28;20030;-82
2023/07/31 03:34:45;;;;;;;5.50;5.00;;;22.90;93.20;;;;;;4991734;28;20026;-82
2023/07/31 03:37:11;;;;;;;5.22;4.72;;;23.00;93.20;;;;;;4992603;28;20113;-82
2023/07/31 03:39:36;;;;;;;4.90;4.40;;;23.20;92.90;;;;;;4991378;28;20018;-82
2023/07/31 03:42:02;;;;;;;6.18;5.55;;;23.30;92.80;;;;;;4991268;28;20018;-82
2023/07/31 03:44:28;;;;;;;6.47;5.57;;;23.50;92.60;;;;;;4992639;28;20213;-82
2023/07/31 03:46:53;;;;;;;5.93;5.30;;;23.60;92.10;;;;;;4992794;28;20038;-82
2023/07/31 03:49:19;;;;;;;5.97;5.38;;;23.70;92.00;;;;;;4991596;28;20386;-82
2023/07/31 03:51:45;;;;;;;7.07;6.30;;;23.80;91.60;;;;;;4989580;28;20030;-82
2023/07/31 03:54:10;;;;;;;6.78;6.05;;;23.90;91.20;;;;;;4989128;28;20534;-82
2023/07/31 03:56:38;;;;;;;6.88;6.20;;;24.00;90.80;;;;;;4989366;28;20038;-82
2023/07/31 03:59:04;;;;;;;6.88;5.93;;;24.10;90.20;;;;;;4990456;28;20034;-82
2023/07/31 04:01:29;;;;;;;7.22;6.32;;;24.10;89.50;;;;;;4991136;28;20088;-82
2023/07/31 04:03:55;;;;;;;6.53;5.93;;;24.10;89.30;;;;;;4990953;28;20049;-82
2023/07/31 04:06:21;;;;;;;6.32;5.75;;;24.20;88.20;;;;;;4992136;28;20110;-82
2023/07/31 04:08:47;;;;;;;5.88;5.28;;;24.20;87.80;;;;;;4991055;28;20398;-82
2023/07/31 04:11:12;;;;;;;5.75;4.93;;;24.30;87.30;;;;;;4992096;28;20152;-82
2023/07/31 04:13:38;;;;;;;5.68;5.15;;;24.30;87.40;;;;;;4990685;28;20058;-82
2023/07/31 04:16:04;;;;;;;5.32;4.70;;;24.50;86.80;;;;;;4990767;28;20034;-82
2023/07/31 04:18:32;;;;;;;5.85;5.25;;;24.70;86.40;;;;;;4992146;28;20478;-82
2023/07/31 04:20:58;;;;;;;5.15;4.65;;;24.90;86.30;;;;;;4992059;28;20102;-82
2023/07/31 04:23:25;;;;;;;5.07;4.18;;;25.20;86.00;;;;;;4992149;28;20023;-82
2023/07/31 04:25:51;;;;;;;5.10;4.60;;;25.60;84.90;;;;;;4990680;28;20049;-82
2023/07/31 04:28:16;;;;;;;4.68;4.18;;;25.90;84.20;;;;;;4990759;28;20034;-82
2023/07/31 04:30:42;;;;;;;4.75;4.35;;;26.30;83.70;;;;;;4992151;28;20034;-82
2023/07/31 04:33:08;;;;;;;5.68;5.03;;;26.70;82.00;;;;;;4990716;28;20030;-83
2023/07/31 04:35:33;;;;;;;5.82;5.32;;;26.80;80.40;;;;;;4992026;28;20081;-83
2023/07/31 04:37:59;;;;;;;5.65;5.15;;;26.80;79.50;;;;;;4990653;28;20033;-83
2023/07/31 04:40:25;;;;;;;5.43;4.93;;;26.70;79.00;;;;;;4993464;28;20023;-82
2023/07/31 04:42:50;;;;;;;5.35;4.85;;;26.60;78.80;;;;;;4993436;28;20026;-82
2023/07/31 04:45:16;;;;;;;5.50;5.00;;;26.40;78.80;;;;;;4993651;28;20081;-82
2023/07/31 04:47:42;;;;;;;6.18;5.63;;;26.20;79.00;;;;;;4991499;28;20034;-82
2023/07/31 04:50:08;;;;;;;6.32;5.53;;;26.10;79.30;;;;;;4994200;28;20145;-83
2023/07/31 04:52:34;;;;;;;6.20;5.38;;;25.90;79.40;;;;;;4994438;28;20441;-82
2023/07/31 04:54:59;;;;;;;5.38;4.88;;;25.80;79.50;;;;;;4994418;28;20026;-82
2023/07/31 04:57:25;;;;;;;5.68;5.18;;;25.80;80.00;;;;;;4993751;28;20128;-82
2023/07/31 04:59:50;;;;;;;5.50;5.00;;;25.70;80.20;;;;;;4994142;28;20126;-82
2023/07/31 05:02:16;;;;;;;5.18;4.68;;;25.60;80.70;;;;;;4993964;28;20049;-82
2023/07/31 05:04:42;;;;;;;5.35;4.80;;;25.70;81.30;;;;;;4993131;28;20110;-82
2023/07/31 05:07:07;;;;;;;4.90;4.40;;;25.80;81.30;;;;;;4993636;28;20037;-82
2023/07/31 05:09:33;;;;;;;6.50;5.13;;;25.90;81.40;;;;;;4992760;28;20037;-82
2023/07/31 05:11:59;;;;;;;5.50;5.00;;;26.00;80.90;;;;;;4992106;28;20054;-83
2023/07/31 05:14:25;;;;;;;4.97;4.55;;;26.20;81.20;;;;;;4992292;28;20062;-83
2023/07/31 05:16:51;;;;;;;6.85;5.10;;;26.30;81.10;;;;;;4994231;28;20026;-83
2023/07/31 05:19:16;;;;;;;5.35;4.85;;;26.50;80.70;;;;;;4993314;28;20038;-82
2023/07/31 05:21:42;;;;;;;5.20;4.68;;;26.60;79.90;;;;;;4992674;28;20033;-82
2023/07/31 05:24:07;;;;;;;5.57;5.00;;;26.70;79.30;;;;;;4991546;28;20037;-83
2023/07/31 05:26:33;;;;;;;6.38;5.78;;;26.80;79.20;;;;;;4992416;28;20026;-82
2023/07/31 05:28:59;;;;;;;5.90;5.15;;;26.80;78.90;;;;;;4995437;28;20030;-84
2023/07/31 05:31:25;;;;;;;5.57;5.07;;;26.80;78.40;;;;;;5000658;28;20092;-82
2023/07/31 05:33:51;;;;;;;6.10;5.50;;;26.70;78.40;;;;;;5004088;28;20030;-83
2023/07/31 05:36:17;;;;;;;6.43;5.28;;;26.60;78.60;;;;;;5010379;28;20026;-82
2023/07/31 05:38:44;;;;;;;5.80;5.07;;;26.50;78.60;;;;;;5014995;28;20042;-83
2023/07/31 05:41:11;;;;;;;6.25;5.55;;;26.30;78.80;;;;;;5028492;28;20030;-84
2023/07/31 05:43:37;;;;;;;5.90;5.30;;;26.20;79.00;;;;;;5003414;28;20478;-83
2023/07/31 05:46:03;;;;;;;6.03;5.43;;;26.00;79.20;;;;;;5005631;28;20076;-86
2023/07/31 05:48:28;;;;;;;6.10;5.45;;;25.90;79.40;;;;;;5023974;28;20026;-85
2023/07/31 05:50:54;;;;;;;6.40;5.80;;;25.80;79.50;;;;;;5007120;28;20035;-84
2023/07/31 05:53:20;;;;;;;5.38;4.88;;;25.70;79.80;;;;;;5009100;28;20093;-83
2023/07/31 05:55:45;;;;;;;5.85;5.22;;;25.60;80.10;;;;;;4999596;28;20031;-85
2023/07/31 05:58:11;;;;;;;5.97;5.38;;;25.60;80.40;;;;;;5007736;28;20034;-84
2023/07/31 06:00:37;;;;;;;6.07;5.47;;;25.60;80.50;;;;;;5002361;28;20972;-85
2023/07/31 06:03:02;;;;;;;6.10;5.47;;;25.50;80.50;;;;;;4989504;28;20034;-82
2023/07/31 06:05:29;;;;;;;6.47;5.88;;;25.40;80.70;;;;;;4989741;28;20038;-82
2023/07/31 06:07:55;;;;;;;5.65;5.15;;;25.30;80.80;;;;;;4988444;28;20039;-82
2023/07/31 06:10:21;;;;;;;5.90;5.38;;;25.20;81.00;;;;;;4987953;28;20037;-83
2023/07/31 06:12:47;;;;;;;6.65;5.53;;;25.10;81.20;;;;;;4981320;28;20055;-83
2023/07/31 06:15:13;;;;;;;5.70;5.15;;;25.10;81.50;;;;;;4986697;28;20057;-83
2023/07/31 06:17:38;;;;;;;5.85;5.35;;;25.00;81.70;;;;;;4991963;28;20038;-83
2023/07/31 06:20:07;;;;;;;5.55;5.05;;;24.90;82.10;;;;;;4990866;28;20065;-83
2023/07/31 06:22:33;;;;;;;6.40;5.05;;;24.80;82.40;;;;;;4987902;28;20620;-83
2023/07/31 06:24:58;;;;;;;6.10;5.50;;;24.70;82.70;;;;;;4985031;28;20031;-83
2023/07/31 06:27:24;;;;;;;6.45;5.10;;;24.60;83.40;;;;;;4966578;28;20736;-85
2023/07/31 06:29:50;;;;;;;5.63;4.90;;;24.50;83.80;;;;;;5003377;28;20026;-85
2023/07/31 06:32:15;;;;;;;5.65;5.00;;;24.40;84.40;;;;;;4988357;28;20033;-85
2023/07/31 06:34:41;;;;;;;7.00;5.05;;;24.30;85.00;;;;;;4987372;28;20092;-85
2023/07/31 06:37:07;;;;;;;5.97;4.90;;;24.30;85.40;;;;;;4985883;28;20031;-85
2023/07/31 06:39:32;;;;;;;5.90;5.05;;;24.20;86.00;;;;;;4990054;28;20026;-85
2023/07/31 06:41:58;;;;;;;7.47;5.72;;;24.10;86.50;;;;;;4999162;28;20084;-84
2023/07/31 06:44:24;;;;;;;8.07;4.97;;;24.10;87.10;;;;;;5003721;28;20065;-83
2023/07/31 06:46:49;;;;;;;5.93;5.35;;;24.00;87.70;;;;;;5002667;28;20478;-82
2023/07/31 06:49:15;;;;;;;6.30;5.63;;;23.90;88.30;;;;;;4988063;28;20030;-85
2023/07/31 06:51:41;;;;;;;6.30;5.70;;;23.80;88.70;;;;;;4988131;28;20034;-83
2023/07/31 06:54:08;;;;;;;6.22;5.63;;;23.70;89.20;;;;;;4986051;28;20023;-83
2023/07/31 06:56:34;;;;;;;6.38;5.78;;;23.70;89.90;;;;;;4986231;28;20022;-84
2023/07/31 06:59:00;;;;;;;6.80;6.10;;;23.70;90.00;;;;;;4985139;28;20041;-83
2023/07/31 07:01:26;;;;;;;7.07;6.38;;;23.70;90.30;;;;;;4987904;28;20104;-84
2023/07/31 07:03:51;;;;;;;7.50;6.03;;;23.60;90.40;;;;;;4988238;28;20022;-83
2023/07/31 07:06:17;;;;;;;6.80;6.20;;;23.50;90.70;;;;;;4988446;28;20030;-84
2023/07/31 07:08:43;;;;;;;6.78;6.18;;;23.50;91.00;;;;;;4988927;28;20109;-86
2023/07/31 07:11:09;;;;;;;6.90;6.20;;;23.40;91.30;;;;;;5003228;28;20117;-83
2023/07/31 07:13:35;;;;;;;8.63;6.40;;;23.30;91.70;;;;;;4987041;28;20054;-86
2023/07/31 07:16:00;;;;;;;6.45;5.85;;;23.30;92.00;;;;;;4986839;28;20134;-83
2023/07/31 07:18:26;;;;;;;6.68;6.07;;;23.30;92.20;;;;;;4984433;28;20027;-84
2023/07/31 07:20:53;;;;;;;7.28;6.57;;;23.30;92.40;;;;;;5003564;28;20073;-85
2023/07/31 07:23:20;;;;;;;7.07;6.38;;;23.30;92.70;;;;;;4993729;28;20168;-83
2023/07/31 07:25:47;;;;;;;7.80;5.90;;;23.20;93.00;;;;;;4984445;28;20072;-84
2023/07/31 07:28:13;;;;;;;7.10;6.40;;;23.20;93.20;;;;;;4987174;28;20459;-85
2023/07/31 07:30:39;;;;;;;6.75;6.07;;;23.20;93.60;;;;;;4986639;28;20058;-83
2023/07/31 07:33:05;;;;;;;7.05;6.30;;;23.20;93.80;;;;;;4982304;28;20486;-83
2023/07/31 07:35:32;;;;;;;6.80;6.10;;;23.30;94.00;;;;;;4977423;28;20057;-83
2023/07/31 07:37:58;;;;;;;7.40;6.22;;;23.30;94.10;;;;;;4976530;28;20057;-83
2023/07/31 07:40:24;;;;;;;7.43;6.72;;;23.30;94.20;;;;;;4982099;28;20022;-83
2023/07/31 07:42:50;;;;;;;6.97;6.32;;;23.30;94.30;;;;;;4977863;28;20034;-83
2023/07/31 07:45:15;;;;;;;7.78;7.03;;;23.30;94.40;;;;;;4981097;28;20667;-84
2023/07/31 07:47:42;;;;;;;7.07;6.45;;;23.30;94.40;;;;;;4979775;28;20041;-84
2023/07/31 07:50:08;;;;;;;7.10;6.40;;;23.30;94.60;;;;;;4985237;28;20031;-84
2023/07/31 07:52:34;;;;;;;8.00;7.30;;;23.30;94.70;;;;;;4980312;28;20050;-84
2023/07/31 07:55:00;;;;;;;7.70;6.97;;;23.30;94.80;;;;;;4981340;28;20058;-84
2023/07/31 07:57:26;;;;;;;8.30;7.43;;;23.30;94.90;;;;;;4992481;28;20022;-83
2023/07/31 07:59:52;;;;;;;8.25;7.47;;;23.30;95.00;;;;;;4998690;28;20025;-84
2023/07/31 08:02:17;;;;;;;7.32;6.65;;;23.30;95.10;;;;;;5008848;28;20035;-86
2023/07/31 08:04:43;;;;;;;7.55;6.85;;;23.30;95.20;;;;;;5027456;28;20022;-89
2023/07/31 08:09:39;;;;;;;7.73;7.03;;;23.30;95.50;;;;;;5005395;28;19905;-82
2023/07/31 08:12:05;;;;;;;8.02;7.22;;;23.30;95.50;;;;;;5018607;28;20133;-81
2023/07/31 08:14:31;;;;;;;8.55;7.63;;;23.30;95.60;;;;;;5013031;28;20022;-81
2023/07/31 08:16:57;;;;;;;8.32;7.53;;;23.40;95.70;;;;;;5014901;28;20033;-83
2023/07/31 08:19:22;;;;;;;8.52;7.32;;;23.40;95.80;;;;;;5006012;28;20113;-84
2023/07/31 08:24:21;;;;;;;7.78;7.07;;;23.40;95.90;;;;;;4962881;28;20415;-78
2023/07/31 08:26:48;;;;;;;8.60;7.80;;;23.40;96.00;;;;;;4953982;28;20086;-78
2023/07/31 08:29:14;;;;;;;7.70;7.00;;;23.50;95.90;;;;;;4972011;28;20085;-83
2023/07/31 08:31:39;;;;;;;7.95;7.25;;;23.40;95.80;;;;;;4957806;28;20038;-83
2023/07/31 08:34:05;;;;;;;7.93;7.18;;;23.40;95.80;;;;;;4975814;28;20434;-83
2023/07/31 08:36:31;;;;;;;7.88;7.18;;;23.40;95.80;;;;;;4955348;28;20034;-83
2023/07/31 08:38:56;;;;;;;7.90;6.63;;;23.40;95.80;;;;;;4967600;28;20142;-83
2023/07/31 08:41:22;;;;;;;7.38;6.68;;;23.40;95.90;;;;;;4962384;28;20023;-83
2023/07/31 08:43:50;;;;;;;7.70;7.00;;;23.40;95.90;;;;;;4966461;28;20031;-84
2023/07/31 08:46:40;;;;;;;7.05;6.43;;;23.50;95.80;;;;;;4966332;28;20034;-83
2023/07/31 08:49:07;;;;;;;8.23;6.53;;;23.40;95.20;;;;;;4967212;28;20640;-80
2023/07/31 08:51:35;;;;;;;8.18;6.95;;;23.40;95.70;;;;;;4965185;28;20515;-80
2023/07/31 08:54:01;;;;;;;7.63;6.93;;;23.50;95.60;;;;;;4967352;28;20043;-82
2023/07/31 08:56:28;;;;;;;8.20;7.40;;;23.40;95.80;;;;;;4964861;28;20050;-80
2023/07/31 08:58:54;;;;;;;8.68;7.88;;;23.40;96.00;;;;;;4955650;28;20360;-79
2023/07/31 09:01:21;;;;;;;8.45;7.65;;;23.40;96.20;;;;;;4949246;28;20035;-80
2023/07/31 09:03:48;;;;;;;8.45;7.65;;;23.40;96.20;;;;;;4960543;28;20103;-80
2023/07/31 09:06:17;;;;;;;9.32;8.52;;;23.40;96.20;;;;;;4966431;28;20031;-79
2023/07/31 09:08:43;;;;;;;9.18;8.18;;;23.50;96.30;;;;;;4966305;28;20067;-78
2023/07/31 09:11:09;;;;;;;8.38;7.57;;;23.50;96.20;;;;;;4966960;28;20030;-83
2023/07/31 09:13:35;;;;;;;8.07;7.28;;;23.40;96.10;;;;;;4958591;28;20034;-82
2023/07/31 09:16:00;;;;;;;7.85;7.15;;;23.40;96.50;;;;;;4983696;28;20371;-83
2023/07/31 09:18:26;;;;;;;7.85;7.15;;;23.50;96.30;;;;;;4981229;28;20031;-83
2023/07/31 09:21:05;;;;;;;7.65;6.82;;;23.40;96.30;;;;;;4983862;28;20082;-83
2023/07/31 09:23:47;;;;;;;8.63;7.15;;;23.40;96.10;;;;;;4990339;28;20051;-84
2023/07/31 09:26:30;;;;;;;7.63;6.70;;;23.50;96.50;;;;;;4989986;28;20410;-84
2023/07/31 09:28:56;;;;;;;7.63;6.82;;;23.50;96.30;;;;;;4997691;28;20038;-84
2023/07/31 09:31:38;;;;;;;7.00;6.30;;;23.50;96.70;;;;;;4992107;28;20027;-83
2023/07/31 09:34:04;;;;;;;7.68;6.95;;;23.60;96.60;;;;;;4980061;28;20033;-84
2023/07/31 09:36:31;;;;;;;6.88;6.28;;;23.60;97.20;;;;;;4979805;28;20015;-85
2023/07/31 09:39:04;;;;;;;7.25;6.55;;;23.70;97.20;;;;;;4966866;28;20118;-84
2023/07/31 09:41:39;;;;;;;7.13;6.53;;;23.80;96.70;;;;;;4973658;28;20027;-84
2023/07/31 09:44:04;;;;;;;7.13;6.45;;;23.90;95.90;;;;;;4993787;28;20034;-84
2023/07/31 09:46:30;;;;;;;7.13;6.45;;;24.00;95.70;;;;;;4997346;28;20059;-84
2023/07/31 09:49:10;;;;;;;8.43;7.68;;;24.10;95.50;;;;;;4992136;28;20019;-84
2023/07/31 09:51:40;;;;;;;9.43;8.55;;;24.20;95.10;;;;;;4985120;28;20030;-84
2023/07/31 09:54:13;;;;;;;8.48;7.68;;;24.20;95.30;;;;;;4987498;28;20078;-81
2023/07/31 09:56:49;;;;;;;7.50;6.80;;;24.30;94.90;;;;;;4971640;28;20026;-79
2023/07/31 09:59:16;;;;;;;7.05;6.45;;;24.30;94.90;;;;;;4970511;28;20119;-78
2023/07/31 10:01:43;;;;;;;7.30;6.70;;;24.40;94.70;;;;;;4968406;28;20117;-79
2023/07/31 10:04:10;;;;;;;7.07;6.38;;;24.50;94.20;;;;;;4971580;28;20073;-80
2023/07/31 10:06:38;;;;;;;7.68;6.97;;;24.50;94.00;;;;;;4955798;28;20023;-78
2023/07/31 10:09:06;;;;;;;7.53;6.82;;;24.60;93.80;;;;;;4971266;28;20093;-78
2023/07/31 10:11:40;;;;;;;7.65;6.95;;;24.60;93.00;;;;;;4973150;28;20031;-78
2023/07/31 10:14:07;;;;;;;7.55;6.70;;;24.70;93.00;;;;;;4949212;28;20034;-78
2023/07/31 10:16:34;;;;;;;7.68;6.97;;;24.70;92.80;;;;;;4954088;28;20031;-80
2023/07/31 10:19:01;;;;;;;7.78;6.97;;;24.70;92.60;;;;;;4976233;28;20113;-78
2023/07/31 10:21:27;;;;;;;8.05;7.35;;;24.80;92.40;;;;;;4973225;28;20483;-78
2023/07/31 10:23:54;;;;;;;7.82;7.10;;;24.80;92.50;;;;;;4968831;28;20043;-80
2023/07/31 10:26:21;;;;;;;8.55;7.75;;;24.80;92.50;;;;;;4969126;28;20110;-79
2023/07/31 10:28:50;;;;;;;8.57;7.78;;;24.80;92.30;;;;;;4974485;28;20030;-77
2023/07/31 10:31:16;;;;;;;7.30;6.68;;;24.80;92.30;;;;;;4972856;28;20431;-80
2023/07/31 10:33:42;;;;;;;7.65;6.95;;;24.70;92.20;;;;;;4969900;28;20034;-80
2023/07/31 10:36:18;;;;;;;7.78;7.07;;;24.70;92.10;;;;;;4972108;28;20031;-79
2023/07/31 10:38:43;;;;;;;7.60;6.82;;;24.60;91.90;;;;;;4954811;28;20035;-78
2023/07/31 10:41:10;;;;;;;7.25;6.50;;;24.60;92.20;;;;;;4968166;28;20554;-79
2023/07/31 10:43:37;;;;;;;7.70;7.00;;;24.60;92.20;;;;;;4958315;28;20033;-78
2023/07/31 10:46:12;;;;;;;7.22;6.53;;;24.50;92.30;;;;;;4976223;28;20022;-78
2023/07/31 10:48:41;;;;;;;8.55;7.75;;;24.50;92.20;;;;;;4973033;28;20110;-79
2023/07/31 10:51:16;;;;;;;7.88;7.18;;;24.50;92.60;;;;;;4956191;28;20066;-78
2023/07/31 10:53:41;;;;;;;8.90;8.00;;;24.50;92.60;;;;;;4978621;28;20030;-78
2023/07/31 10:56:12;;;;;;;7.90;7.20;;;24.50;92.60;;;;;;4971714;28;20030;-78
2023/07/31 10:58:38;;;;;;;;;;;24.60;92.50;;;;;;4954607;28;20061;-77
2023/07/31 11:01:05;;;;;;;7.20;6.50;;;24.50;92.30;;;;;;4973798;28;19928;-78
2023/07/31 11:03:48;;;;;;;7.57;6.97;;;24.50;92.80;;;;;;4973328;28;20027;-78
2023/07/31 11:06:15;;;;;;;7.65;6.80;;;24.50;92.60;;;;;;4967173;28;20054;-77
2023/07/31 11:08:52;;;;;;;7.78;7.07;;;24.50;92.90;;;;;;4945504;28;20034;-78
2023/07/31 11:11:20;;;;;;;7.40;6.78;;;24.60;92.70;;;;;;4956055;28;20066;-78
2023/07/31 11:13:54;;;;;;;8.20;7.50;;;24.60;93.10;;;;;;4966601;28;20038;-78
2023/07/31 11:16:25;;;;;;;7.35;6.75;;;24.60;93.00;;;;;;4963339;28;20033;-78
2023/07/31 11:18:53;;;;;;;7.93;7.22;;;24.60;92.80;;;;;;4962443;28;20042;-79
2023/07/31 11:21:23;;;;;;;8.00;7.28;;;24.60;92.70;;;;;;4951591;28;20029;-77
2023/07/31 11:23:50;;;;;;;;;;;24.60;92.60;;;;;;4973358;28;20733;-79
2023/07/31 11:26:17;;;;;;;6.85;6.22;;;24.60;92.40;;;;;;4964135;28;19918;-79
2023/07/31 11:28:43;;;;;;;7.13;6.43;;;24.60;92.70;;;;;;4965913;28;20031;-80
2023/07/31 11:31:10;;;;;;;7.10;6.45;;;24.60;92.60;;;;;;4954797;28;20122;-80
2023/07/31 11:33:36;;;;;;;6.68;6.07;;;24.60;92.50;;;;;;4975348;28;20081;-80
2023/07/31 11:36:02;;;;;;;6.15;5.55;;;24.70;92.40;;;;;;4954611;28;20026;-80
2023/07/31 11:38:32;;;;;;;6.63;6.03;;;24.70;92.20;;;;;;4976272;28;20074;-85
2023/07/31 11:41:02;;;;;;;6.05;5.55;;;24.80;91.90;;;;;;5001579;28;20011;-84
2023/07/31 11:43:29;;;;;;;7.00;6.40;;;24.80;91.70;;;;;;4995115;28;20053;-86
2023/07/31 11:45:56;;;;;;;7.22;6.53;;;24.90;92.00;;;;;;4995944;23;20104;-85
2023/07/31 11:48:28;;;;;;;7.35;6.70;;;24.90;91.50;;;;;;4998799;28;21009;-84
2023/07/31 11:50:58;;;;;;;7.07;6.43;;;24.90;91.30;;;;;;5002717;28;20038;-85
2023/07/31 11:53:42;;;;;;;7.72;7.03;;;25.00;91.30;;;;;;5015664;28;20018;-88
2023/07/31 11:56:11;;;;;;;8.80;8.00;;;25.00;91.20;;;;;;5032246;28;20022;-89
2023/07/31 11:58:38;;;;;;;7.95;7.15;;;25.10;91.30;;;;;;5019247;28;20010;-88
2023/07/31 12:01:05;;;;;;;10.45;8.82;;;25.10;91.10;;;;;;5016129;28;20053;-86
2023/07/31 12:03:31;;;;;;;11.20;10.18;;;25.10;91.00;;;;;;5049963;22;20104;-84
2023/07/31 12:05:58;;;;;;;12.55;11.27;;;25.10;90.70;;;;;;5051316;23;20064;-84
2023/07/31 12:08:25;;;;;;;12.68;11.45;;;25.10;90.60;;;;;;5031704;28;20033;-84
2023/07/31 12:10:52;;;;;;;13.57;12.27;;;25.00;90.70;;;;;;5022344;28;20021;-85
2023/07/31 12:13:29;;;;;;;21.55;17.92;;;24.90;90.90;;;;;;5012489;28;20014;-85
2023/07/31 12:15:57;;;;;;;26.85;20.00;;;24.90;91.30;;;;;;5023445;28;20034;-83
2023/07/31 12:18:24;;;;;;;26.13;20.60;;;24.80;91.50;;;;;;5011703;28;20045;-84
2023/07/31 12:20:55;;;;;;;25.95;21.38;;;24.70;91.80;;;;;;5027156;28;20045;-84
2023/07/31 12:23:28;;;;;;;26.08;20.42;;;24.70;92.00;;;;;;5009697;28;20343;-85
2023/07/31 12:26:07;;;;;;;24.83;19.63;;;24.60;92.30;;;;;;5027333;28;20141;-84
2023/07/31 12:28:42;;;;;;;20.63;17.75;;;24.60;92.40;;;;;;5017808;28;20475;-84
2023/07/31 12:31:19;;;;;;;19.65;17.15;;;24.60;92.70;;;;;;5017868;28;20106;-85
2023/07/31 12:33:46;;;;;;;17.60;14.88;;;24.60;93.00;;;;;;5014871;28;20031;-85
2023/07/31 12:36:18;;;;;;;17.80;15.93;;;24.50;93.20;;;;;;5023902;28;20018;-85
2023/07/31 12:38:44;;;;;;;14.88;13.23;;;24.50;93.30;;;;;;5014908;28;20066;-85
2023/07/31 12:41:10;;;;;;;12.75;10.85;;;24.50;93.40;;;;;;5012644;28;20030;-85
2023/07/31 12:43:38;;;;;;;10.02;9.02;;;24.50;93.30;;;;;;5016675;28;20041;-85
2023/07/31 12:46:04;;;;;;;8.88;8.07;;;24.50;93.20;;;;;;5027171;28;20012;-84
2023/07/31 12:48:31;;;;;;;8.98;8.07;;;24.50;93.10;;;;;;5007706;28;20029;-86
2023/07/31 12:50:57;;;;;;;7.53;6.72;;;24.50;93.00;;;;;;5023581;28;20034;-85